Edisongracht — PDUJ — position and weather

sailwx.info

Track history (hours):
 
Tides and Currents Weather Stations Pressure Air Temp Water Temp Dewpoint Dewpoint Depression Visibility Wind Speed Wind Dir Waves Ship Positions

Edisongracht

Last reported at 2016-May-03 06:33 UTC. Time now 2016-May-03 06:48 UTC.
Position N 38°57' W 010°07'.

Length 136 m; beam 19 m; draft 9 m.

Type: Cargo ship. MMSI: 244262000.

Date/timePositionNaut miles runAvg speedWind from/ knotsBaromVisibWave heightAir tempDewpointWater temp
2016-May-03 06:33N 38°57' W 010°07'1413.7
2016-May-03 05:34N 39°11' W 010°08'  
2016-May-01 00:27N 49°43' W 003°45'1112.3
2016-Apr-30 23:33N 49°48' W 003°30'1212.4
2016-Apr-30 22:33N 49°54' W 003°14'1313.1
2016-Apr-30 21:33N 49°60' W 002°56'9313.3
2016-Apr-30 14:33N 50°25' W 000°36'1110.8
2016-Apr-30 13:33N 50°29' W 000°20'1211.6
2016-Apr-30 12:29N 50°32' W 000°01'1212.5
2016-Apr-30 11:33N 50°35' E 000°17'1413.5
2016-Apr-30 10:33N 50°39' E 000°37'2814.0
2016-Apr-30 08:33N 50°56' E 001°12'1313.3
2016-Apr-30 07:33N 51°04' E 001°28'1212.0
2016-Apr-30 06:33N 51°12' E 001°43'1211.7
2016-Apr-30 05:33N 51°22' E 001°53'1212.5
2016-Apr-30 04:34N 51°32' E 002°04'9511.9
2016-Apr-29 20:32N 52°31' E 004°05'1010.6
2016-Apr-29 19:33N 52°31' E 004°22'8 8.1
2016-Apr-29 18:34N 52°28' E 004°35'1 1.0
2016-Apr-29 17:33N 52°28' E 004°36'0 0.0
2016-Apr-29 16:33N 52°28' E 004°36'0 0.0
2016-Apr-29 15:33N 52°28' E 004°36'0 0.0
2016-Apr-29 14:33N 52°28' E 004°36'0 0.0
2016-Apr-29 13:33N 52°28' E 004°36'0 0.0
2016-Apr-29 12:33N 52°28' E 004°36'0 0.0
2016-Apr-29 11:33N 52°28' E 004°36'0 0.0
2016-Apr-29 10:33N 52°28' E 004°36'0 0.0
2016-Apr-29 09:33N 52°28' E 004°36'0 0.0
2016-Apr-29 08:33N 52°28' E 004°36'0 0.0
2016-Apr-29 07:33N 52°28' E 004°36'0 0.0
2016-Apr-29 06:33N 52°28' E 004°36'0 0.0
2016-Apr-29 05:33N 52°28' E 004°36'0 0.0
2016-Apr-29 04:33N 52°28' E 004°36'0 0.0
2016-Apr-29 03:33N 52°28' E 004°36'0 0.0
2016-Apr-29 02:33N 52°28' E 004°36'0 0.0
2016-Apr-29 01:33N 52°28' E 004°36'0 0.0
2016-Apr-29 00:33N 52°28' E 004°36'0 0.0
2016-Apr-28 23:30N 52°28' E 004°36'0 0.0
2016-Apr-28 22:30N 52°28' E 004°36'0 0.0
2016-Apr-28 21:33N 52°28' E 004°36'0 0.0
2016-Apr-28 20:33N 52°28' E 004°36'0 0.0
2016-Apr-28 19:33N 52°28' E 004°36'0 0.0
2016-Apr-28 18:33N 52°28' E 004°36'0 0.0
2016-Apr-28 17:30N 52°28' E 004°36'0 0.0
2016-Apr-28 16:32N 52°28' E 004°36'0 0.0
2016-Apr-28 15:32N 52°28' E 004°36'0 0.0
2016-Apr-28 14:32N 52°28' E 004°36'0 0.0
2016-Apr-28 13:32N 52°28' E 004°36'0 0.0
2016-Apr-28 12:32N 52°28' E 004°36'0 0.0
2016-Apr-28 11:32N 52°28' E 004°36'0 0.0
2016-Apr-28 10:32N 52°28' E 004°36'0 0.0
2016-Apr-28 09:32N 52°28' E 004°36'0 0.0
2016-Apr-28 08:32N 52°28' E 004°36'0 0.0
2016-Apr-28 07:32N 52°28' E 004°36'0 0.0
2016-Apr-28 06:32N 52°28' E 004°36'0 0.0
2016-Apr-28 05:32N 52°28' E 004°36'0 0.0
2016-Apr-28 04:32N 52°28' E 004°36'0 0.0
2016-Apr-28 03:32N 52°28' E 004°36'0 0.0
2016-Apr-28 02:32N 52°28' E 004°36'0 0.0
2016-Apr-28 01:32N 52°28' E 004°36'0 0.0
2016-Apr-28 00:32N 52°28' E 004°36'0 0.0
2016-Apr-27 23:32N 52°28' E 004°36'0 0.0
2016-Apr-27 22:32N 52°28' E 004°36'0 0.0
2016-Apr-27 21:32N 52°28' E 004°36'0 0.0
2016-Apr-27 20:32N 52°28' E 004°36'0 0.0
2016-Apr-27 19:32N 52°28' E 004°36'0 0.0
2016-Apr-27 18:32N 52°28' E 004°36'0 0.0
2016-Apr-27 17:32N 52°28' E 004°36'0 0.0
2016-Apr-27 16:31N 52°28' E 004°36'0 0.0
2016-Apr-27 15:28N 52°28' E 004°36'0 0.3
2016-Apr-27 14:34N 52°28' E 004°37'5 4.7
2016-Apr-27 13:34N 52°26' E 004°43'6 5.4
2016-Apr-27 12:32N 52°24' E 004°52'0 0.0
2016-Apr-27 11:32N 52°24' E 004°52'0 0.0
2016-Apr-27 10:32N 52°24' E 004°52'0 0.0
2016-Apr-27 09:32N 52°24' E 004°52'0 0.0
2016-Apr-27 08:32N 52°24' E 004°52'0 0.0
2016-Apr-27 07:32N 52°24' E 004°52'0 0.0
2016-Apr-27 06:32N 52°24' E 004°52'0 0.0
2016-Apr-27 05:32N 52°24' E 004°52'0 0.0
2016-Apr-27 04:32N 52°24' E 004°52'0 0.0
2016-Apr-27 03:32N 52°24' E 004°52'0 0.0
2016-Apr-27 02:32N 52°24' E 004°52'0 0.0
2016-Apr-27 01:32N 52°24' E 004°52'0 0.0
2016-Apr-27 00:32N 52°24' E 004°52'0 0.0
2016-Apr-26 23:32N 52°24' E 004°52'0 0.0
2016-Apr-26 22:32N 52°24' E 004°52'0 0.0
2016-Apr-26 21:32N 52°24' E 004°52'0 0.0
2016-Apr-26 20:32N 52°24' E 004°52'0 0.0
2016-Apr-26 19:32N 52°24' E 004°52'0 0.0
2016-Apr-26 18:32N 52°24' E 004°52'0 0.0
2016-Apr-26 17:32N 52°24' E 004°52'0 0.0
2016-Apr-26 16:32N 52°24' E 004°52'0 0.0
2016-Apr-26 15:32N 52°24' E 004°52'0 0.0
2016-Apr-26 14:32N 52°24' E 004°52'0 0.0
2016-Apr-26 13:32N 52°24' E 004°52'0 0.0
2016-Apr-26 12:31N 52°24' E 004°52'0 0.0
2016-Apr-26 11:31N 52°24' E 004°52'0 0.0
2016-Apr-26 10:31N 52°24' E 004°52'0 0.0
2016-Apr-26 09:31N 52°24' E 004°52'0 0.0
2016-Apr-26 08:31N 52°24' E 004°52'0 0.0
2016-Apr-26 07:31N 52°24' E 004°52'0 0.0
2016-Apr-26 06:31N 52°24' E 004°52'0 0.0
2016-Apr-26 05:31N 52°24' E 004°52'0 0.0
2016-Apr-26 04:28N 52°24' E 004°52'0 0.0
2016-Apr-26 03:31N 52°24' E 004°52'0 0.0
2016-Apr-26 02:31N 52°24' E 004°52'0 0.0
2016-Apr-26 01:31N 52°24' E 004°52'0 0.0
2016-Apr-26 00:31N 52°24' E 004°52'0 0.0
2016-Apr-25 23:31N 52°24' E 004°52'0 0.0
2016-Apr-25 22:31N 52°24' E 004°52'0 0.0
2016-Apr-25 21:31N 52°24' E 004°52'0 0.0
2016-Apr-25 20:31N 52°24' E 004°52'0 0.0
2016-Apr-25 19:31N 52°24' E 004°52'0 0.0
2016-Apr-25 18:31N 52°24' E 004°52'0 0.0
2016-Apr-25 17:31N 52°24' E 004°52'0 0.0
2016-Apr-25 16:31N 52°24' E 004°52'0 0.0
2016-Apr-25 15:31N 52°24' E 004°52'0 0.0
2016-Apr-25 14:31N 52°24' E 004°52'0 0.0
2016-Apr-25 13:31N 52°24' E 004°52'0 0.0
2016-Apr-25 12:34N 52°24' E 004°52'0 0.0
2016-Apr-25 11:33N 52°24' E 004°52'0 0.0
2016-Apr-25 10:33N 52°24' E 004°52'0 0.0
2016-Apr-25 09:33N 52°24' E 004°52'0 0.0
2016-Apr-25 08:33N 52°24' E 004°52'0 0.0
2016-Apr-25 07:33N 52°24' E 004°52'0 0.0
2016-Apr-25 06:33N 52°24' E 004°52'0 0.0
2016-Apr-25 05:33N 52°24' E 004°52'0 0.0
2016-Apr-25 04:33N 52°24' E 004°52'0 0.0
2016-Apr-25 03:33N 52°24' E 004°52'0 0.0
2016-Apr-25 02:33N 52°24' E 004°52'0 0.0
2016-Apr-25 01:33N 52°24' E 004°52'0 0.0
2016-Apr-25 00:33N 52°24' E 004°52'0 0.0
2016-Apr-24 23:33N 52°24' E 004°52'0 0.0
2016-Apr-24 22:33N 52°24' E 004°52'0 0.0
2016-Apr-24 21:33N 52°24' E 004°52'0 0.0
2016-Apr-24 20:33N 52°24' E 004°52'0 0.0
2016-Apr-24 19:33N 52°24' E 004°52'0 0.0
2016-Apr-24 18:33N 52°24' E 004°52'0 0.0
2016-Apr-24 17:33N 52°24' E 004°52'0 0.0
2016-Apr-24 16:33N 52°24' E 004°52'0 0.0
2016-Apr-24 15:33N 52°24' E 004°52'0 0.0
2016-Apr-24 14:33N 52°24' E 004°52'0 0.0
2016-Apr-24 13:33N 52°24' E 004°52'0 0.0
2016-Apr-24 12:33N 52°24' E 004°52'0 0.0
2016-Apr-24 11:32N 52°24' E 004°52'0 0.0
2016-Apr-24 10:32N 52°24' E 004°52'0 0.0
2016-Apr-24 09:32N 52°24' E 004°52'0 0.0
2016-Apr-24 08:32N 52°24' E 004°52'0 0.0
2016-Apr-24 07:32N 52°24' E 004°52'0 0.0
2016-Apr-24 06:32N 52°24' E 004°52'0 0.0
2016-Apr-24 05:32N 52°24' E 004°52'0 0.0
2016-Apr-24 04:32N 52°24' E 004°52'0 0.0
2016-Apr-24 03:32N 52°24' E 004°52'0 0.0
2016-Apr-24 02:32N 52°24' E 004°52'0 0.0
2016-Apr-24 01:32N 52°24' E 004°52'0 0.0
2016-Apr-24 00:32N 52°24' E 004°52'0 0.0
2016-Apr-23 23:32N 52°24' E 004°52'0 0.0
2016-Apr-23 22:32N 52°24' E 004°52'0 0.0
2016-Apr-23 21:32N 52°24' E 004°52'0 0.0
2016-Apr-23 20:32N 52°24' E 004°52'0 0.0
2016-Apr-23 19:32N 52°24' E 004°52'0 0.0
2016-Apr-23 18:32N 52°24' E 004°52'0 0.0
2016-Apr-23 17:32N 52°24' E 004°52'0 0.0
2016-Apr-23 16:32N 52°24' E 004°52'0 0.0
2016-Apr-23 15:32N 52°24' E 004°52'0 0.0
2016-Apr-23 14:32N 52°24' E 004°52'0 0.0
2016-Apr-23 13:32N 52°24' E 004°52'0 0.0
2016-Apr-23 12:32N 52°24' E 004°52'0 0.0
2016-Apr-23 11:31N 52°24' E 004°52'0 0.0
2016-Apr-23 10:31N 52°24' E 004°52'0 0.0
2016-Apr-23 09:31N 52°24' E 004°52'0 0.0
2016-Apr-23 08:31N 52°24' E 004°52'0 0.0
2016-Apr-23 07:31N 52°24' E 004°52'  
Track history (hours):
 
Tides and Currents Weather Stations Pressure Air Temp Water Temp Dewpoint Dewpoint Depression Visibility Wind Speed Wind Dir Waves Ship Positions

Edisongracht

Last reported at 2016-May-03 06:33 UTC. Time now 2016-May-03 06:48 UTC.
Position N 38°57' W 010°07'.

Length 136 m; beam 19 m; draft 9 m.

Type: Cargo ship. MMSI: 244262000.

Date/timePositionNaut miles runAvg speedWind from/ knotsBaromVisibWave heightAir tempDewpointWater temp
2016-May-03 06:33N 38°57' W 010°07'1413.7
2016-May-03 05:34N 39°11' W 010°08'  
2016-May-01 00:27N 49°43' W 003°45'1112.3
2016-Apr-30 23:33N 49°48' W 003°30'1212.4
2016-Apr-30 22:33N 49°54' W 003°14'1313.1
2016-Apr-30 21:33N 49°60' W 002°56'9313.3
2016-Apr-30 14:33N 50°25' W 000°36'1110.8
2016-Apr-30 13:33N 50°29' W 000°20'1211.6
2016-Apr-30 12:29N 50°32' W 000°01'1212.5
2016-Apr-30 11:33N 50°35' E 000°17'1413.5
2016-Apr-30 10:33N 50°39' E 000°37'2814.0
2016-Apr-30 08:33N 50°56' E 001°12'1313.3
2016-Apr-30 07:33N 51°04' E 001°28'1212.0
2016-Apr-30 06:33N 51°12' E 001°43'1211.7
2016-Apr-30 05:33N 51°22' E 001°53'1212.5
2016-Apr-30 04:34N 51°32' E 002°04'9511.9
2016-Apr-29 20:32N 52°31' E 004°05'1010.6
2016-Apr-29 19:33N 52°31' E 004°22'8 8.1
2016-Apr-29 18:34N 52°28' E 004°35'1 1.0
2016-Apr-29 17:33N 52°28' E 004°36'0 0.0
2016-Apr-29 16:33N 52°28' E 004°36'0 0.0
2016-Apr-29 15:33N 52°28' E 004°36'0 0.0
2016-Apr-29 14:33N 52°28' E 004°36'0 0.0
2016-Apr-29 13:33N 52°28' E 004°36'0 0.0
2016-Apr-29 12:33N 52°28' E 004°36'0 0.0
2016-Apr-29 11:33N 52°28' E 004°36'0 0.0
2016-Apr-29 10:33N 52°28' E 004°36'0 0.0
2016-Apr-29 09:33N 52°28' E 004°36'0 0.0
2016-Apr-29 08:33N 52°28' E 004°36'0 0.0
2016-Apr-29 07:33N 52°28' E 004°36'0 0.0
2016-Apr-29 06:33N 52°28' E 004°36'0 0.0
2016-Apr-29 05:33N 52°28' E 004°36'0 0.0
2016-Apr-29 04:33N 52°28' E 004°36'0 0.0
2016-Apr-29 03:33N 52°28' E 004°36'0 0.0
2016-Apr-29 02:33N 52°28' E 004°36'0 0.0
2016-Apr-29 01:33N 52°28' E 004°36'0 0.0
2016-Apr-29 00:33N 52°28' E 004°36'0 0.0
2016-Apr-28 23:30N 52°28' E 004°36'0 0.0
2016-Apr-28 22:30N 52°28' E 004°36'0 0.0
2016-Apr-28 21:33N 52°28' E 004°36'0 0.0
2016-Apr-28 20:33N 52°28' E 004°36'0 0.0
2016-Apr-28 19:33N 52°28' E 004°36'0 0.0
2016-Apr-28 18:33N 52°28' E 004°36'0 0.0
2016-Apr-28 17:30N 52°28' E 004°36'0 0.0
2016-Apr-28 16:32N 52°28' E 004°36'0 0.0
2016-Apr-28 15:32N 52°28' E 004°36'0 0.0
2016-Apr-28 14:32N 52°28' E 004°36'0 0.0
2016-Apr-28 13:32N 52°28' E 004°36'0 0.0
2016-Apr-28 12:32N 52°28' E 004°36'0 0.0
2016-Apr-28 11:32N 52°28' E 004°36'0 0.0
2016-Apr-28 10:32N 52°28' E 004°36'0 0.0
2016-Apr-28 09:32N 52°28' E 004°36'0 0.0
2016-Apr-28 08:32N 52°28' E 004°36'0 0.0
2016-Apr-28 07:32N 52°28' E 004°36'0 0.0
2016-Apr-28 06:32N 52°28' E 004°36'0 0.0
2016-Apr-28 05:32N 52°28' E 004°36'0 0.0
2016-Apr-28 04:32N 52°28' E 004°36'0 0.0
2016-Apr-28 03:32N 52°28' E 004°36'0 0.0
2016-Apr-28 02:32N 52°28' E 004°36'0 0.0
2016-Apr-28 01:32N 52°28' E 004°36'0 0.0
2016-Apr-28 00:32N 52°28' E 004°36'0 0.0
2016-Apr-27 23:32N 52°28' E 004°36'0 0.0
2016-Apr-27 22:32N 52°28' E 004°36'0 0.0
2016-Apr-27 21:32N 52°28' E 004°36'0 0.0
2016-Apr-27 20:32N 52°28' E 004°36'0 0.0
2016-Apr-27 19:32N 52°28' E 004°36'0 0.0
2016-Apr-27 18:32N 52°28' E 004°36'0 0.0
2016-Apr-27 17:32N 52°28' E 004°36'0 0.0
2016-Apr-27 16:31N 52°28' E 004°36'0 0.0
2016-Apr-27 15:28N 52°28' E 004°36'0 0.3
2016-Apr-27 14:34N 52°28' E 004°37'5 4.7
2016-Apr-27 13:34N 52°26' E 004°43'6 5.4
2016-Apr-27 12:32N 52°24' E 004°52'0 0.0
2016-Apr-27 11:32N 52°24' E 004°52'0 0.0
2016-Apr-27 10:32N 52°24' E 004°52'0 0.0
2016-Apr-27 09:32N 52°24' E 004°52'0 0.0
2016-Apr-27 08:32N 52°24' E 004°52'0 0.0
2016-Apr-27 07:32N 52°24' E 004°52'0 0.0
2016-Apr-27 06:32N 52°24' E 004°52'0 0.0
2016-Apr-27 05:32N 52°24' E 004°52'0 0.0
2016-Apr-27 04:32N 52°24' E 004°52'0 0.0
2016-Apr-27 03:32N 52°24' E 004°52'0 0.0
2016-Apr-27 02:32N 52°24' E 004°52'0 0.0
2016-Apr-27 01:32N 52°24' E 004°52'0 0.0
2016-Apr-27 00:32N 52°24' E 004°52'0 0.0
2016-Apr-26 23:32N 52°24' E 004°52'0 0.0
2016-Apr-26 22:32N 52°24' E 004°52'0 0.0
2016-Apr-26 21:32N 52°24' E 004°52'0 0.0
2016-Apr-26 20:32N 52°24' E 004°52'0 0.0
2016-Apr-26 19:32N 52°24' E 004°52'0 0.0
2016-Apr-26 18:32N 52°24' E 004°52'0 0.0
2016-Apr-26 17:32N 52°24' E 004°52'0 0.0
2016-Apr-26 16:32N 52°24' E 004°52'0 0.0
2016-Apr-26 15:32N 52°24' E 004°52'0 0.0
2016-Apr-26 14:32N 52°24' E 004°52'0 0.0
2016-Apr-26 13:32N 52°24' E 004°52'0 0.0
2016-Apr-26 12:31N 52°24' E 004°52'0 0.0
2016-Apr-26 11:31N 52°24' E 004°52'0 0.0
2016-Apr-26 10:31N 52°24' E 004°52'0 0.0
2016-Apr-26 09:31N 52°24' E 004°52'0 0.0
2016-Apr-26 08:31N 52°24' E 004°52'0 0.0
2016-Apr-26 07:31N 52°24' E 004°52'0 0.0
2016-Apr-26 06:31N 52°24' E 004°52'0 0.0
2016-Apr-26 05:31N 52°24' E 004°52'0 0.0
2016-Apr-26 04:28N 52°24' E 004°52'0 0.0
2016-Apr-26 03:31N 52°24' E 004°52'0 0.0
2016-Apr-26 02:31N 52°24' E 004°52'0 0.0
2016-Apr-26 01:31N 52°24' E 004°52'0 0.0
2016-Apr-26 00:31N 52°24' E 004°52'0 0.0
2016-Apr-25 23:31N 52°24' E 004°52'0 0.0
2016-Apr-25 22:31N 52°24' E 004°52'0 0.0
2016-Apr-25 21:31N 52°24' E 004°52'0 0.0
2016-Apr-25 20:31N 52°24' E 004°52'0 0.0
2016-Apr-25 19:31N 52°24' E 004°52'0 0.0
2016-Apr-25 18:31N 52°24' E 004°52'0 0.0
2016-Apr-25 17:31N 52°24' E 004°52'0 0.0
2016-Apr-25 16:31N 52°24' E 004°52'0 0.0
2016-Apr-25 15:31N 52°24' E 004°52'0 0.0
2016-Apr-25 14:31N 52°24' E 004°52'0 0.0
2016-Apr-25 13:31N 52°24' E 004°52'0 0.0
2016-Apr-25 12:34N 52°24' E 004°52'0 0.0
2016-Apr-25 11:33N 52°24' E 004°52'0 0.0
2016-Apr-25 10:33N 52°24' E 004°52'0 0.0
2016-Apr-25 09:33N 52°24' E 004°52'0 0.0
2016-Apr-25 08:33N 52°24' E 004°52'0 0.0
2016-Apr-25 07:33N 52°24' E 004°52'0 0.0
2016-Apr-25 06:33N 52°24' E 004°52'0 0.0
2016-Apr-25 05:33N 52°24' E 004°52'0 0.0
2016-Apr-25 04:33N 52°24' E 004°52'0 0.0
2016-Apr-25 03:33N 52°24' E 004°52'0 0.0
2016-Apr-25 02:33N 52°24' E 004°52'0 0.0
2016-Apr-25 01:33N 52°24' E 004°52'0 0.0
2016-Apr-25 00:33N 52°24' E 004°52'0 0.0
2016-Apr-24 23:33N 52°24' E 004°52'0 0.0
2016-Apr-24 22:33N 52°24' E 004°52'0 0.0
2016-Apr-24 21:33N 52°24' E 004°52'0 0.0
2016-Apr-24 20:33N 52°24' E 004°52'0 0.0
2016-Apr-24 19:33N 52°24' E 004°52'0 0.0
2016-Apr-24 18:33N 52°24' E 004°52'0 0.0
2016-Apr-24 17:33N 52°24' E 004°52'0 0.0
2016-Apr-24 16:33N 52°24' E 004°52'0 0.0
2016-Apr-24 15:33N 52°24' E 004°52'0 0.0
2016-Apr-24 14:33N 52°24' E 004°52'0 0.0
2016-Apr-24 13:33N 52°24' E 004°52'0 0.0
2016-Apr-24 12:33N 52°24' E 004°52'0 0.0
2016-Apr-24 11:32N 52°24' E 004°52'0 0.0
2016-Apr-24 10:32N 52°24' E 004°52'0 0.0
2016-Apr-24 09:32N 52°24' E 004°52'0 0.0
2016-Apr-24 08:32N 52°24' E 004°52'0 0.0
2016-Apr-24 07:32N 52°24' E 004°52'0 0.0
2016-Apr-24 06:32N 52°24' E 004°52'0 0.0
2016-Apr-24 05:32N 52°24' E 004°52'0 0.0
2016-Apr-24 04:32N 52°24' E 004°52'0 0.0
2016-Apr-24 03:32N 52°24' E 004°52'0 0.0
2016-Apr-24 02:32N 52°24' E 004°52'0 0.0
2016-Apr-24 01:32N 52°24' E 004°52'0 0.0
2016-Apr-24 00:32N 52°24' E 004°52'0 0.0
2016-Apr-23 23:32N 52°24' E 004°52'0 0.0
2016-Apr-23 22:32N 52°24' E 004°52'0 0.0
2016-Apr-23 21:32N 52°24' E 004°52'0 0.0
2016-Apr-23 20:32N 52°24' E 004°52'0 0.0
2016-Apr-23 19:32N 52°24' E 004°52'0 0.0
2016-Apr-23 18:32N 52°24' E 004°52'0 0.0
2016-Apr-23 17:32N 52°24' E 004°52'0 0.0
2016-Apr-23 16:32N 52°24' E 004°52'0 0.0
2016-Apr-23 15:32N 52°24' E 004°52'0 0.0
2016-Apr-23 14:32N 52°24' E 004°52'0 0.0
2016-Apr-23 13:32N 52°24' E 004°52'0 0.0
2016-Apr-23 12:32N 52°24' E 004°52'0 0.0
2016-Apr-23 11:31N 52°24' E 004°52'0 0.0
2016-Apr-23 10:31N 52°24' E 004°52'0 0.0
2016-Apr-23 09:31N 52°24' E 004°52'0 0.0
2016-Apr-23 08:31N 52°24' E 004°52'0 0.0
2016-Apr-23 07:31N 52°24' E 004°52'  

Dump ship's entire track history